Time;durP1;ratioP1;P1;durP2;ratioP2;P2;SDS_P1;SDS_P2;PMS_P1;PMS_P2;Temp;Humidity;BMP_temperature;BMP_pressure;BME280_temperature;BME280_humidity;BME280_pressure;Samples;Min_cycle;Max_cycle;Signal;HPM_P1;HPM_P2
2022/07/13 00:01:07;;;;;;;;;8.33;5.33;;;;;29.54;30.28;101843.06;5097493;27;56648;-78
2022/07/13 00:03:33;;;;;;;;;5.67;5.00;;;;;29.51;30.49;101845.94;5097034;27;47681;-79
2022/07/13 00:05:58;;;;;;;;;4.00;4.00;;;;;29.49;30.34;101842.41;5096792;27;65479;-78
2022/07/13 00:08:23;;;;;;;;;3.33;3.33;;;;;29.45;30.82;101841.66;5097044;27;57886;-78
2022/07/13 00:10:49;;;;;;;;;5.00;5.00;;;;;29.43;30.68;101842.72;5096683;27;45390;-78
2022/07/13 00:13:14;;;;;;;;;4.00;4.00;;;;;29.39;30.56;101844.72;5096312;27;46629;-80
2022/07/13 00:15:40;;;;;;;;;6.00;4.33;;;;;29.35;30.35;101834.97;5097151;27;48736;-78
2022/07/13 00:18:05;;;;;;;;;7.67;6.33;;;;;29.31;30.56;101836.09;5097427;27;45708;-82
2022/07/13 00:20:30;;;;;;;;;4.00;4.00;;;;;29.28;30.61;101827.19;5097061;27;45315;-79
2022/07/13 00:22:56;;;;;;;;;5.33;4.00;;;;;29.24;30.73;101831.91;5096341;27;70860;-81
2022/07/13 00:25:21;;;;;;;;;4.33;4.33;;;;;29.19;31.23;101829.44;5097444;27;45402;-78
2022/07/13 00:27:47;;;;;;;;;6.00;4.00;;;;;29.14;31.06;101839.66;5096725;27;45499;-78
2022/07/13 00:30:12;;;;;;;;;5.00;5.00;;;;;29.10;31.38;101845.34;5095791;27;48005;-77
2022/07/13 00:32:38;;;;;;;;;6.00;4.00;;;;;29.04;31.56;101845.66;5097136;27;48229;-80
2022/07/13 00:35:03;;;;;;;;;4.33;4.33;;;;;28.97;31.75;101839.63;5097384;27;45390;-79
2022/07/13 00:37:29;;;;;;;;;4.67;4.67;;;;;28.92;31.71;101837.13;5097519;27;45409;-80
2022/07/13 00:39:54;;;;;;;;;7.00;5.00;;;;;28.87;31.95;101832.84;5095973;27;62969;-80
2022/07/13 00:42:19;;;;;;;;;6.00;4.67;;;;;28.80;32.27;101823.22;5096171;27;69393;-80
2022/07/13 00:44:45;;;;;;;;;6.00;6.00;;;;;28.77;32.13;101823.41;5096458;27;66771;-79
2022/07/13 00:47:10;;;;;;;;;6.67;4.00;;;;;28.71;32.67;101819.16;5097241;27;45133;-81
2022/07/13 00:49:36;;;;;;;;;8.00;5.00;;;;;28.66;32.53;101824.81;5078949;27;45262;-80
2022/07/13 00:52:02;;;;;;;;;5.00;5.00;;;;;28.58;32.47;101816.13;5077077;27;49637;-78
2022/07/13 00:54:29;;;;;;;;;6.67;5.00;;;;;28.55;32.67;101829.91;5096483;27;45670;-81
2022/07/13 00:56:56;;;;;;;;;7.33;5.00;;;;;28.49;32.85;101824.72;5096313;27;45394;-80
2022/07/13 00:59:22;;;;;;;;;4.33;3.67;;;;;28.44;33.10;101826.78;5097502;27;45365;-79
2022/07/13 01:01:47;;;;;;;;;7.00;5.00;;;;;28.39;33.57;101823.41;5078267;27;46524;-79
2022/07/13 01:04:13;;;;;;;;;7.00;5.67;;;;;28.35;33.35;101814.53;5095959;27;65117;-79
2022/07/13 01:06:38;;;;;;;;;7.00;4.00;;;;;28.29;33.18;101820.25;5096061;27;65648;-79
2022/07/13 01:09:04;;;;;;;;;5.00;4.00;;;;;28.26;33.26;101820.38;5096682;27;56334;-78
2022/07/13 01:11:32;;;;;;;;;5.00;5.00;;;;;28.22;33.98;101812.44;5095786;27;46497;-78
2022/07/13 01:13:57;;;;;;;;;6.00;4.33;;;;;28.18;33.85;101811.72;5078274;27;45546;-78
2022/07/13 01:16:23;;;;;;;;;5.67;5.00;;;;;28.15;33.90;101812.72;5095756;27;54577;-78
2022/07/13 01:18:49;;;;;;;;;6.00;4.00;;;;;28.13;34.33;101817.38;5095263;27;45475;-81
2022/07/13 01:21:15;;;;;;;;;5.00;5.00;;;;;28.09;34.28;101826.59;5077836;27;46376;-78
2022/07/13 01:23:41;;;;;;;;;8.33;6.00;;;;;28.07;34.41;101819.47;5078568;27;45904;-77
2022/07/13 01:26:07;;;;;;;;;6.00;6.00;;;;;28.03;34.81;101818.75;5096694;27;45539;-78
2022/07/13 01:28:33;;;;;;;;;5.00;5.00;;;;;27.99;34.68;101817.13;5095488;27;45636;-80
2022/07/13 01:30:58;;;;;;;;;7.33;6.00;;;;;27.96;35.14;101809.09;5094938;27;46448;-78
2022/07/13 01:33:23;;;;;;;;;5.00;5.00;;;;;27.92;35.38;101816.53;5095921;27;45370;-79
2022/07/13 01:35:49;;;;;;;;;5.67;5.67;;;;;27.90;35.80;101812.09;5089085;27;45580;-82
2022/07/13 01:38:14;;;;;;;;;5.67;5.33;;;;;27.86;35.68;101808.66;5095964;27;53041;-78
2022/07/13 01:40:41;;;;;;;;;6.00;6.00;;;;;27.85;35.43;101808.72;5096075;27;63170;-78
2022/07/13 01:43:07;;;;;;;;;6.00;6.00;;;;;27.86;35.51;101813.22;5099878;27;45450;-78
2022/07/13 01:45:32;;;;;;;;;6.33;6.33;;;;;27.84;35.80;101809.66;5100116;27;45252;-78
2022/07/13 01:47:58;;;;;;;;;4.00;4.00;;;;;27.84;36.09;101804.25;5098980;27;62821;-78
2022/07/13 01:50:24;;;;;;;;;7.67;6.00;;;;;27.84;36.14;101806.94;5094430;27;70198;-78
2022/07/13 01:52:50;;;;;;;;;6.00;6.00;;;;;27.84;36.36;101801.53;5098567;27;45310;-78
2022/07/13 01:55:16;;;;;;;;;5.33;4.00;;;;;27.82;36.03;101804.31;5099749;27;45271;-79
2022/07/13 01:57:41;;;;;;;;;7.33;5.00;;;;;27.84;37.08;101801.53;5099208;27;45338;-77
2022/07/13 02:00:11;;;;;;;;;7.33;5.33;;;;;27.83;36.29;101797.94;5099218;27;47892;-78
2022/07/13 02:02:36;;;;;;;;;9.00;6.00;;;;;27.82;36.97;101792.59;5099579;27;45335;-80
2022/07/13 02:05:02;;;;;;;;;5.67;4.33;;;;;27.82;37.11;101793.47;5098882;27;45346;-80
2022/07/13 02:07:27;;;;;;;;;5.67;5.33;;;;;27.83;36.96;101797.94;5100176;27;45477;-79
2022/07/13 02:09:52;;;;;;;;;4.67;4.67;;;;;27.83;37.50;101789.78;5098996;27;46843;-80
2022/07/13 02:12:18;;;;;;;;;5.00;5.00;;;;;27.83;37.28;101787.06;5098514;27;45554;-81
2022/07/13 02:14:44;;;;;;;;;5.00;5.00;;;;;27.85;37.25;101782.44;5099605;27;45487;-79
2022/07/13 02:17:10;;;;;;;;;5.33;5.33;;;;;27.86;37.29;101788.78;5099359;27;45473;-81
2022/07/13 02:19:35;;;;;;;;;8.00;6.00;;;;;27.86;37.78;101786.94;5098703;27;46875;-78
2022/07/13 02:22:01;;;;;;;;;8.33;6.00;;;;;27.87;37.88;101793.25;5099109;27;45382;-80
2022/07/13 02:24:26;;;;;;;;;9.33;7.33;;;;;27.86;38.03;101783.34;5099170;27;45285;-81
2022/07/13 02:26:52;;;;;;;;;5.67;5.00;;;;;27.86;37.57;101783.34;5098156;27;58924;-78
2022/07/13 02:29:17;;;;;;;;;6.00;6.00;;;;;27.84;37.99;101779.81;5099398;27;46500;-78
2022/07/13 02:31:42;;;;;;;;;5.67;5.67;;;;;27.84;37.95;101787.94;5097960;27;61015;-79
2022/07/13 02:34:08;;;;;;;;;5.67;4.67;;;;;27.83;37.85;101778.06;5098376;27;46730;-80
2022/07/13 02:36:33;;;;;;;;;4.67;4.67;;;;;27.82;37.86;101773.59;5085752;27;57569;-80
2022/07/13 02:38:59;;;;;;;;;8.67;5.00;;;;;27.82;38.44;101771.75;5098434;27;47605;-76
2022/07/13 02:41:24;;;;;;;;;5.00;5.00;;;;;27.81;38.24;101774.53;5098605;27;52167;-79
2022/07/13 02:43:49;;;;;;;;;7.33;6.33;;;;;27.80;38.33;101780.91;5089592;27;59977;-78
2022/07/13 02:46:15;;;;;;;;;7.00;5.67;;;;;27.79;38.45;101774.59;5098701;27;45326;-78
2022/07/13 02:48:40;;;;;;;;;7.00;5.67;;;;;27.77;38.27;101768.38;5097441;27;70393;-81
2022/07/13 02:51:05;;;;;;;;;6.33;6.33;;;;;27.77;38.49;101775.63;5097045;27;66942;-78
2022/07/13 02:53:31;;;;;;;;;6.00;6.00;;;;;27.76;38.19;101768.44;5097381;27;62649;-78
2022/07/13 02:55:56;;;;;;;;;4.00;4.00;;;;;27.78;38.71;101780.09;5098445;27;62305;-78
2022/07/13 02:58:21;;;;;;;;;4.33;4.33;;;;;27.77;38.36;101781.06;5097186;27;68532;-80
2022/07/13 03:00:47;;;;;;;;;6.67;6.00;;;;;27.74;38.37;101781.19;5097625;27;45496;-78
2022/07/13 03:03:12;;;;;;;;;6.00;6.00;;;;;27.73;39.09;101777.59;5099147;27;45260;-80
2022/07/13 03:05:37;;;;;;;;;5.00;5.00;;;;;27.73;38.90;101782.13;5097669;27;61965;-79
2022/07/13 03:08:03;;;;;;;;;6.00;6.00;;;;;27.71;38.95;101778.63;5098397;27;46363;-78
2022/07/13 03:10:29;;;;;;;;;6.00;5.67;;;;;27.68;38.70;101774.16;5097729;27;45350;-80
2022/07/13 03:12:55;;;;;;;;;7.00;5.00;;;;;27.65;38.94;101775.19;5098317;27;58733;-81
2022/07/13 03:15:20;;;;;;;;;5.00;5.00;;;;;27.63;39.25;101770.78;5098608;27;45356;-78
2022/07/13 03:17:45;;;;;;;;;6.00;6.00;;;;;27.62;39.34;101778.03;5098520;27;47315;-78
2022/07/13 03:20:11;;;;;;;;;6.00;6.00;;;;;27.61;38.85;101778.13;5097560;27;45387;-79
2022/07/13 03:22:37;;;;;;;;;6.00;5.00;;;;;27.59;38.86;101770.06;5098305;27;45376;-79
2022/07/13 03:25:05;;;;;;;;;5.00;5.00;;;;;27.56;38.85;101769.31;5098560;27;45554;-78
2022/07/13 03:27:31;;;;;;;;;8.00;5.00;;;;;27.55;39.76;101764.84;5097825;27;47610;-81
2022/07/13 03:29:56;;;;;;;;;6.00;5.00;;;;;27.55;39.79;101768.44;5097432;27;61879;-78
2022/07/13 03:32:22;;;;;;;;;5.00;5.00;;;;;27.53;39.75;101772.16;5097888;27;45276;-78
2022/07/13 03:34:47;;;;;;;;;7.67;6.00;;;;;27.51;40.23;101769.50;5098410;27;45592;-77
2022/07/13 03:37:12;;;;;;;;;7.00;5.00;;;;;27.47;40.42;101769.72;5098013;27;47271;-81
2022/07/13 03:39:38;;;;;;;;;6.00;4.33;;;;;27.47;39.89;101773.31;5097849;27;45353;-78
2022/07/13 03:42:04;;;;;;;;;4.00;4.00;;;;;27.46;40.56;101770.66;5098182;27;45406;-79
2022/07/13 03:44:30;;;;;;;;;6.33;5.33;;;;;27.45;40.37;101777.94;5098375;27;45332;-77
2022/07/13 03:46:55;;;;;;;;;9.00;6.00;;;;;27.42;40.35;101768.06;5079028;27;52482;-78
2022/07/13 03:49:20;;;;;;;;;5.33;5.33;;;;;27.43;40.40;101774.38;5094252;27;66378;-81
2022/07/13 03:51:46;;;;;;;;;7.33;5.00;;;;;27.41;40.76;101779.00;5095982;27;59817;-81
2022/07/13 03:54:12;;;;;;;;;7.67;6.67;;;;;27.39;41.13;101783.63;5097737;27;45659;-77
2022/07/13 03:56:39;;;;;;;;;6.00;5.00;;;;;27.38;41.40;101777.31;5077715;27;46528;-78
2022/07/13 03:59:05;;;;;;;;;6.33;5.00;;;;;27.38;41.38;101776.44;5097374;27;45324;-81
2022/07/13 04:01:30;;;;;;;;;5.00;5.00;;;;;27.35;41.58;101771.16;5096955;27;45413;-82
2022/07/13 04:03:55;;;;;;;;;5.67;5.67;;;;;27.32;41.58;101782.13;5097580;27;45527;-78
2022/07/13 04:06:21;;;;;;;;;7.00;5.00;;;;;27.34;41.61;101786.53;5097745;27;47443;-80
2022/07/13 04:08:46;;;;;;;;;5.00;5.00;;;;;27.32;42.02;101782.13;5097902;27;64887;-78
2022/07/13 04:11:11;;;;;;;;;6.33;5.33;;;;;27.31;42.13;101783.94;5099212;27;63383;-79
2022/07/13 04:13:37;;;;;;;;;6.67;5.67;;;;;27.30;42.13;101779.47;5097844;27;45437;-78
2022/07/13 04:16:02;;;;;;;;;10.00;6.00;;;;;27.26;42.41;101780.56;5096647;27;67232;-78
2022/07/13 04:18:27;;;;;;;;;6.33;6.00;;;;;27.27;42.39;101784.16;5095367;27;45354;-81
2022/07/13 04:20:53;;;;;;;;;8.00;5.00;;;;;27.26;42.79;101780.56;5097488;27;45606;-79
2022/07/13 04:23:18;;;;;;;;;6.00;5.00;;;;;27.24;42.89;101781.59;5096789;27;63546;-79
2022/07/13 04:25:45;;;;;;;;;5.00;5.00;;;;;27.22;42.81;101778.03;5096987;27;61070;-79
2022/07/13 04:28:10;;;;;;;;;5.00;5.00;;;;;27.23;42.58;101767.16;5095866;27;59497;-80
2022/07/13 04:30:36;;;;;;;;;6.33;6.33;;;;;27.23;42.98;101768.97;5097441;27;45326;-79
2022/07/13 04:33:01;;;;;;;;;4.33;4.33;;;;;27.21;43.25;101770.84;5096949;27;58540;-81
2022/07/13 04:35:27;;;;;;;;;10.00;8.00;;;;;27.20;43.62;101767.25;5089565;27;46422;-78
2022/07/13 04:37:52;;;;;;;;;6.67;6.00;;;;;27.19;43.72;101768.22;5095352;27;68193;-80
2022/07/13 04:40:18;;;;;;;;;5.00;5.00;;;;;27.20;43.21;101771.81;5096396;27;45275;-79
2022/07/13 04:42:43;;;;;;;;;7.00;7.00;;;;;27.22;43.90;101770.81;5079071;27;45559;-80
2022/07/13 04:45:09;;;;;;;;;6.00;6.00;;;;;27.22;44.04;101767.19;5096122;27;67074;-81
2022/07/13 04:47:36;;;;;;;;;6.00;6.00;;;;;27.21;44.01;101763.59;5096337;27;45481;-80
2022/07/13 04:50:01;;;;;;;;;5.00;5.00;;;;;27.21;44.28;101762.72;5093460;27;47105;-78
2022/07/13 04:52:26;;;;;;;;;9.00;7.67;;;;;27.23;44.13;101761.72;5096610;27;60536;-78
2022/07/13 04:54:52;;;;;;;;;7.67;5.67;;;;;27.24;44.72;101768.03;5096056;27;72217;-79
2022/07/13 04:57:17;;;;;;;;;9.67;6.00;;;;;27.25;44.84;101764.34;5095379;27;66801;-79
2022/07/13 04:59:42;;;;;;;;;7.00;6.00;;;;;27.26;45.02;101767.00;5096658;27;45503;-80
2022/07/13 05:02:07;;;;;;;;;6.67;6.00;;;;;27.27;44.90;101757.94;5093807;27;48698;-79
2022/07/13 05:04:33;;;;;;;;;6.00;6.00;;;;;27.29;45.31;101766.88;5095117;27;70925;-78
2022/07/13 05:07:00;;;;;;;;;6.33;6.00;;;;;27.30;45.63;101762.31;5095172;27;66989;-81
2022/07/13 05:09:26;;;;;;;;;6.33;6.33;;;;;27.29;45.74;101761.44;5096666;27;45306;-78
2022/07/13 05:11:52;;;;;;;;;9.00;5.00;;;;;27.33;45.89;101765.81;5097101;27;45384;-79
2022/07/13 05:14:17;;;;;;;;;7.33;7.33;;;;;27.34;46.00;101766.69;5096605;27;47675;-79
2022/07/13 05:16:42;;;;;;;;;6.00;6.00;;;;;27.35;46.27;101763.88;5097894;27;45464;-81
2022/07/13 05:19:08;;;;;;;;;7.00;5.67;;;;;27.39;46.27;101761.94;5100141;27;45314;-80
2022/07/13 05:21:33;;;;;;;;;5.67;5.67;;;;;27.40;46.69;101763.69;5100282;27;46254;-78
2022/07/13 05:23:58;;;;;;;;;6.33;6.00;;;;;27.42;46.83;101762.66;5098695;27;71523;-80
2022/07/13 05:26:23;;;;;;;;;10.00;7.00;;;;;27.45;47.35;101758.94;5099253;27;48439;-79
2022/07/13 05:28:49;;;;;;;;;7.00;6.00;;;;;27.49;47.16;101762.41;5099202;27;62678;-78
2022/07/13 05:31:14;;;;;;;;;7.00;5.33;;;;;27.50;47.64;101770.47;5099804;27;63186;-78
2022/07/13 05:33:40;;;;;;;;;6.00;6.00;;;;;27.51;46.63;101772.22;5099472;27;69072;-78
2022/07/13 05:36:06;;;;;;;;;4.33;4.33;;;;;27.55;46.24;101771.13;5097100;27;45538;-78
2022/07/13 05:38:31;;;;;;;;;4.00;4.00;;;;;27.58;45.37;101779.13;5099896;27;45321;-77
2022/07/13 05:40:57;;;;;;;;;4.00;4.00;;;;;27.61;44.40;101779.00;5099538;27;60181;-81
2022/07/13 05:43:22;;;;;;;;;4.00;4.00;;;;;27.66;43.57;101784.22;5099222;27;64282;-80
2022/07/13 05:45:47;;;;;;;;;4.67;4.67;;;;;27.71;43.38;101784.06;5094277;27;45615;-79
2022/07/13 05:48:13;;;;;;;;;5.67;5.67;;;;;27.73;43.75;101788.44;5095430;27;62211;-81
2022/07/13 05:50:38;;;;;;;;;4.33;4.33;;;;;27.77;43.69;101790.06;5098408;27;59634;-81
2022/07/13 05:53:04;;;;;;;;;5.33;4.00;;;;;27.80;43.98;101786.31;5097443;27;46452;-81
2022/07/13 05:55:29;;;;;;;;;4.67;4.67;;;;;27.83;43.72;101787.06;5090113;27;65557;-82
2022/07/13 05:57:54;;;;;;;;;3.33;3.33;;;;;27.87;43.71;101790.53;5096310;27;61730;-79
2022/07/13 06:00:20;;;;;;;;;5.67;5.67;;;;;27.89;43.94;101786.78;5098269;27;59646;-79
2022/07/13 06:02:45;;;;;;;;;4.67;4.33;;;;;27.93;44.77;101798.41;5098671;27;47202;-81
2022/07/13 06:05:11;;;;;;;;;7.00;4.67;;;;;27.96;44.89;101797.34;5097847;27;45479;-82
2022/07/13 06:07:36;;;;;;;;;4.00;4.00;;;;;28.00;45.08;101790.84;5094323;27;45526;-80
2022/07/13 06:10:03;;;;;;;;;4.33;4.00;;;;;28.06;45.46;101798.69;5096350;27;45257;-79
2022/07/13 06:12:29;;;;;;;;;5.00;4.67;;;;;28.09;46.19;101804.00;5096714;27;47604;-79
2022/07/13 06:14:54;;;;;;;;;6.00;4.00;;;;;28.11;46.55;101804.78;5099941;27;45447;-81
2022/07/13 06:17:20;;;;;;;;;4.00;4.00;;;;;28.15;46.34;101795.56;5098494;27;45550;-80
2022/07/13 06:19:46;;;;;;;;;5.00;5.00;;;;;28.17;46.67;101794.50;5098914;27;45506;-81
2022/07/13 06:22:11;;;;;;;;;5.67;5.33;;;;;28.24;46.84;101799.69;5092711;27;56593;-81
2022/07/13 06:24:36;;;;;;;;;7.00;5.00;;;;;28.25;47.12;101793.28;5096068;27;64572;-78
2022/07/13 06:27:02;;;;;;;;;10.33;5.33;;;;;28.26;47.31;101795.03;5096691;27;60821;-80
2022/07/13 06:29:27;;;;;;;;;6.00;5.00;;;;;28.26;47.09;101797.75;5098522;27;45318;-81
2022/07/13 06:31:53;;;;;;;;;8.33;5.00;;;;;28.29;47.43;101801.22;5097694;27;46428;-80
2022/07/13 06:34:18;;;;;;;;;6.00;5.00;;;;;28.30;47.32;101802.09;5096937;27;45579;-82
2022/07/13 06:36:44;;;;;;;;;5.67;5.67;;;;;28.30;47.79;101792.13;5101263;27;59153;-79
2022/07/13 06:39:09;;;;;;;;;8.00;5.00;;;;;28.32;47.93;101794.75;5096787;27;45661;-82
2022/07/13 06:41:35;;;;;;;;;4.33;4.33;;;;;28.32;47.88;101792.91;5077712;27;46936;-79
2022/07/13 06:44:00;;;;;;;;;5.33;4.00;;;;;28.31;47.58;101793.88;5077099;27;62730;-82
2022/07/13 06:46:25;;;;;;;;;7.00;4.33;;;;;28.31;45.09;101788.44;5096886;27;45916;-82
2022/07/13 06:48:51;;;;;;;;;7.00;5.33;;;;;28.29;43.95;101790.34;5089588;27;45956;-83
2022/07/13 06:51:16;;;;;;;;;6.00;4.67;;;;;28.30;43.15;101796.66;5096260;27;65848;-86
2022/07/13 06:53:42;;;;;;;;;7.67;4.33;;;;;28.31;41.90;101801.16;5091006;27;67648;-79
2022/07/13 06:56:07;;;;;;;;;6.00;4.67;;;;;28.30;40.90;101785.81;5095807;27;45501;-81
2022/07/13 06:58:32;;;;;;;;;5.67;5.00;;;;;28.32;41.14;101803.78;5088553;27;51690;-78
2022/07/13 07:00:58;;;;;;;;;8.00;7.33;;;;;28.31;40.87;101795.72;5097493;27;46745;-80
2022/07/13 07:03:23;;;;;;;;;6.33;5.00;;;;;28.33;40.31;101805.56;5087572;27;45207;-78
2022/07/13 07:05:49;;;;;;;;;6.00;5.00;;;;;28.36;41.68;101805.44;5097585;27;45468;-79
2022/07/13 07:08:16;;;;;;;;;10.33;10.00;;;;;28.39;40.83;101812.53;5097577;27;45603;-79
2022/07/13 07:10:42;;;;;;;;;10.33;7.00;;;;;28.42;40.64;101802.41;5095361;27;47544;-80
2022/07/13 07:13:07;;;;;;;;;7.33;5.00;;;;;28.50;40.29;101806.59;5096218;27;45476;-79
2022/07/13 07:15:32;;;;;;;;;8.00;7.00;;;;;28.58;40.14;101807.09;5091958;27;45555;-80
2022/07/13 07:17:58;;;;;;;;;10.00;7.00;;;;;28.67;40.23;101809.38;5090257;27;60871;-79
2022/07/13 07:20:23;;;;;;;;;5.00;5.00;;;;;28.73;39.65;101802.75;5091619;27;69691;-80
2022/07/13 07:22:48;;;;;;;;;6.67;6.00;;;;;28.80;40.19;101806.94;5077317;27;53009;-81
2022/07/13 07:25:15;;;;;;;;;11.00;6.00;;;;;28.83;39.36;101801.34;5088586;27;67005;-80
2022/07/13 07:27:41;;;;;;;;;11.00;7.67;;;;;28.84;38.85;101808.53;5096664;27;45567;-80
2022/07/13 07:30:07;;;;;;;;;8.00;6.00;;;;;28.82;39.31;101815.91;5074430;27;46652;-79
2022/07/13 07:32:33;;;;;;;;;6.00;5.00;;;;;28.82;39.12;101807.75;5093123;27;45471;-80
2022/07/13 07:34:58;;;;;;;;;9.00;7.00;;;;;28.81;39.13;101803.25;5088875;27;45496;-80
2022/07/13 07:37:23;;;;;;;;;5.67;4.67;;;;;28.82;39.52;101813.19;5087242;27;45408;-80
2022/07/13 07:39:49;;;;;;;;;6.00;6.00;;;;;28.83;39.03;101804.94;5095461;27;54678;-81
2022/07/13 07:42:15;;;;;;;;;12.67;6.00;;;;;28.88;38.84;101810.16;5093207;27;45536;-81
2022/07/13 07:44:40;;;;;;;;;9.00;6.00;;;;;28.95;38.68;101801.63;5095305;27;45599;-81
2022/07/13 07:47:05;;;;;;;;;5.33;5.33;;;;;29.03;38.77;101809.44;5075841;27;45618;-80
2022/07/13 07:49:31;;;;;;;;;11.00;6.67;;;;;29.13;38.89;101801.66;5096104;27;46532;-83
2022/07/13 07:51:56;;;;;;;;;10.33;7.00;;;;;29.20;38.25;101804.00;5095303;27;65892;-82
2022/07/13 07:54:22;;;;;;;;;6.00;5.00;;;;;29.27;37.85;101800.94;5096901;27;45344;-80
2022/07/13 07:56:48;;;;;;;;;6.00;4.00;;;;;29.26;37.95;101807.34;5085530;27;45605;-81
2022/07/13 07:59:14;;;;;;;;;6.67;5.00;;;;;29.28;37.70;101798.13;5095192;27;46676;-81
2022/07/13 08:01:40;;;;;;;;;7.33;3.67;;;;;29.27;37.57;101790.06;5070043;28;45267;-81
2022/07/13 08:04:05;;;;;;;;;5.67;5.00;;;;;29.26;37.49;101797.34;5095539;27;45507;-82
2022/07/13 08:06:31;;;;;;;;;4.33;4.33;;;;;29.26;37.50;101797.34;5096417;27;45539;-83
2022/07/13 08:08:56;;;;;;;;;9.33;4.67;;;;;29.22;37.41;101793.91;5083839;27;72463;-82
2022/07/13 08:11:21;;;;;;;;;5.67;5.00;;;;;29.18;37.27;101803.16;5093410;27;45468;-82
2022/07/13 08:13:47;;;;;;;;;9.00;5.00;;;;;29.11;37.12;101799.00;5097048;27;45536;-82
2022/07/13 08:16:14;;;;;;;;;7.33;5.00;;;;;29.05;37.50;101793.91;5077320;27;45558;-81
2022/07/13 08:18:39;;;;;;;;;7.67;6.00;;;;;28.99;37.32;101793.34;5094705;27;45534;-80
2022/07/13 08:21:04;;;;;;;;;5.00;5.00;;;;;28.95;37.52;101796.19;5094845;27;68110;-82
2022/07/13 08:26:14;;;;;;;;;5.33;3.67;;;;;28.92;37.97;101793.63;5092793;27;45543;-81
2022/07/13 08:28:39;;;;;;;;;7.00;5.00;;;;;28.93;37.42;101789.97;5092681;27;63000;-79
2022/07/13 08:31:05;;;;;;;;;4.33;4.00;;;;;28.95;37.07;101793.47;5094268;27;60534;-81
2022/07/13 08:38:35;;;;;;;;;5.00;4.00;;;;;28.98;37.22;101792.47;5096909;27;45477;-84
2022/07/13 08:39:07;;;;;;;;;3.33;3.33;;;;;29.02;37.17;101794.03;5095271;27;45712;-79
2022/07/13 08:41:32;;;;;;;;;7.00;4.33;;;;;29.05;37.04;101796.63;5094856;27;45599;-79
2022/07/13 08:43:59;;;;;;;;;4.00;4.00;;;;;29.08;36.69;101792.84;5094825;27;61646;-78
2022/07/13 08:46:25;;;;;;;;;5.00;3.67;;;;;29.09;36.72;101791.91;5073574;27;45631;-80
2022/07/13 08:48:53;;;;;;;;;3.67;3.00;;;;;29.12;36.58;101776.28;5085827;27;46673;-80
2022/07/13 08:51:20;;;;;;;;;3.33;3.33;;;;;29.14;36.44;101785.28;5095362;27;45489;-82
2022/07/13 08:53:46;;;;;;;;;4.33;2.33;;;;;29.17;36.48;101779.66;5094954;27;45570;-80
2022/07/13 08:56:12;;;;;;;;;3.00;3.00;;;;;29.19;36.16;101777.75;5096000;27;45575;-80
2022/07/13 08:58:37;;;;;;;;;4.67;4.67;;;;;29.24;36.22;101780.22;5077743;27;73259;-81
2022/07/13 09:01:05;;;;;;;;;3.00;3.00;;;;;29.27;35.93;101773.75;5097318;27;61791;-81
2022/07/13 09:03:34;;;;;;;;;8.00;4.33;;;;;29.31;36.34;101770.78;5096986;27;45520;-83
2022/07/13 09:05:59;;;;;;;;;4.33;2.67;;;;;29.35;36.11;101780.56;5092274;27;45304;-80
2022/07/13 09:08:24;;;;;;;;;5.67;4.00;;;;;29.40;36.12;101772.13;5070625;27;46247;-83
2022/07/13 09:10:56;;;;;;;;;4.67;4.67;;;;;29.43;36.06;101772.84;5079469;22;2665613;-79
2022/07/13 09:13:42;;;;;;;;;3.67;3.67;;;;;29.49;35.79;101772.50;5033323;28;45507;-79
2022/07/13 09:16:24;;;;;;;;;3.00;3.00;;;;;29.55;35.50;101776.78;5055968;28;45435;-78
2022/07/13 09:18:57;;;;;;;;;3.33;2.00;;;;;29.60;35.33;101779.25;5067255;28;46531;-79
2022/07/13 09:21:23;;;;;;;;;3.00;3.00;;;;;29.65;35.06;101769.00;5069905;28;45418;-78
2022/07/13 09:33:54;;;;;;;;;2.67;2.67;;;;;29.87;34.25;101766.88;5070063;27;45691;-79
2022/07/13 09:36:23;;;;;;;;;2.67;2.67;;;;;29.91;33.37;101762.13;5042545;28;45580;-79
2022/07/13 09:38:51;;;;;;;;;3.00;3.00;;;;;29.96;34.25;101762.78;5037248;28;45704;-77
2022/07/13 09:41:24;;;;;;;;;3.00;3.00;;;;;30.02;33.43;101763.28;5039422;28;45509;-79
2022/07/13 09:46:56;;;;;;;;;3.00;3.00;;;;;30.16;32.93;101761.69;5059941;28;45592;-78
2022/07/13 09:49:37;;;;;;;;;2.00;2.00;;;;;30.20;32.78;101766.88;5064811;28;46781;-79
2022/07/13 09:52:04;;;;;;;;;3.33;3.33;;;;;30.23;32.34;101763.09;5058997;28;46452;-77
2022/07/13 09:54:31;;;;;;;;;2.33;1.67;;;;;30.28;32.98;101761.00;5059827;28;45601;-79
2022/07/13 09:56:59;;;;;;;;;2.00;2.00;;;;;30.34;32.99;101762.47;5039728;28;45446;-79
2022/07/13 09:59:25;;;;;;;;;3.00;2.00;;;;;30.37;32.33;101756.88;5059525;28;45596;-78
2022/07/13 10:01:51;;;;;;;;;2.67;1.67;;;;;30.43;32.66;101760.13;5058421;28;46598;-76
2022/07/13 10:04:17;;;;;;;;;3.67;2.00;;;;;30.47;32.22;101755.38;5073808;28;45475;-78
2022/07/13 10:06:42;;;;;;;;;4.00;2.00;;;;;30.54;31.85;101756.75;5060671;28;45626;-80
2022/07/13 10:09:08;;;;;;;;;2.33;2.33;;;;;30.59;32.22;101751.94;5058210;28;45558;-78
2022/07/13 10:11:34;;;;;;;;;4.00;2.00;;;;;30.66;32.52;101757.88;5037578;28;46763;-80
2022/07/13 10:13:59;;;;;;;;;3.67;2.00;;;;;30.71;32.10;101756.69;5030508;28;45449;-78
2022/07/13 10:16:28;;;;;;;;;2.00;2.00;;;;;30.76;31.93;101762.75;5056992;28;45449;-78
2022/07/13 10:18:55;;;;;;;;;2.33;2.33;;;;;30.82;31.96;101760.63;5019004;28;45654;-79
2022/07/13 10:21:26;;;;;;;;;5.00;5.00;;;;;30.83;32.67;101755.06;5056513;28;45544;-80
2022/07/13 10:23:51;;;;;;;;;4.00;2.33;;;;;30.88;32.24;101749.34;5058686;28;45468;-78
2022/07/13 10:26:21;;;;;;;;;1.00;1.00;;;;;30.95;32.57;101748.91;5056376;28;62938;-81
2022/07/13 10:29:06;;;;;;;;;1.33;1.33;;;;;31.03;32.14;101746.56;5058748;28;45315;-79
2022/07/13 10:31:33;;;;;;;;;1.00;1.00;;;;;31.08;31.98;101743.56;5051740;28;46041;-78
2022/07/13 10:34:00;;;;;;;;;2.33;2.33;;;;;31.15;32.09;101747.69;5064892;28;45506;-81
2022/07/13 10:36:51;;;;;;;;;4.00;3.00;;;;;31.20;31.83;101745.53;5050640;28;45532;-78
2022/07/13 10:39:24;;;;;;;;;4.67;3.00;;;;;31.23;32.05;101747.22;5046299;28;45612;-78
2022/07/13 10:42:00;;;;;;;;;2.00;2.00;;;;;31.27;32.18;101744.25;5057381;28;46572;-79
2022/07/13 10:44:38;;;;;;;;;5.00;3.00;;;;;31.32;32.60;101743.06;5041936;28;45255;-79
2022/07/13 10:47:06;;;;;;;;;5.00;3.00;;;;;31.35;32.63;101749.22;5060507;28;45592;-78
2022/07/13 10:49:32;;;;;;;;;3.33;2.00;;;;;31.42;32.46;101736.94;5054371;28;45543;-79
2022/07/13 10:52:20;;;;;;;;;2.67;2.00;;;;;31.49;32.14;101740.19;5057361;28;46440;-78
2022/07/13 10:55:13;;;;;;;;;2.67;2.00;;;;;31.58;32.78;101741.44;5054194;28;45624;-79
2022/07/13 10:57:43;;;;;;;;;4.33;2.67;;;;;31.66;32.92;101747.31;5049895;28;45419;-79
2022/07/13 11:00:22;;;;;;;;;2.33;2.33;;;;;31.75;32.16;101746.75;5058153;28;45526;-80
2022/07/13 11:03:05;;;;;;;;;2.00;2.00;;;;;31.84;32.20;101742.56;5061446;28;45767;-82
2022/07/13 11:05:35;;;;;;;;;3.00;3.00;;;;;31.89;32.20;101743.16;5051627;28;45395;-81
2022/07/13 11:08:30;;;;;;;;;2.67;2.67;;;;;31.94;31.92;101743.72;5058231;28;45493;-81
2022/07/13 11:11:18;;;;;;;;;3.00;1.67;;;;;32.00;32.51;101746.06;5042478;28;45486;-77
2022/07/13 11:13:45;;;;;;;;;4.00;3.33;;;;;32.05;32.31;101738.44;5054239;28;45880;-79
2022/07/13 11:16:13;;;;;;;;;3.67;3.00;;;;;32.12;32.53;101738.91;5039638;28;45355;-79
2022/07/13 11:18:41;;;;;;;;;3.33;3.33;;;;;32.16;32.21;101733.16;5056412;28;45546;-78
2022/07/13 11:21:14;;;;;;;;;3.00;3.00;;;;;32.21;32.66;101722.78;5054325;28;45431;-78
2022/07/13 11:26:44;;;;;;;;;3.00;3.00;;;;;32.37;32.25;101736.34;5055915;28;45419;-78
2022/07/13 11:29:30;;;;;;;;;3.00;3.00;;;;;32.43;32.04;101730.47;5038907;28;45534;-78
2022/07/13 11:31:57;;;;;;;;;2.00;2.00;;;;;32.47;32.10;101717.50;5061704;28;45477;-78
2022/07/13 11:34:23;;;;;;;;;2.33;2.33;;;;;32.59;32.77;101731.19;5068181;28;45677;-79
2022/07/13 11:36:49;;;;;;;;;4.67;4.33;;;;;32.68;32.00;101716.03;5057307;28;45443;-78
2022/07/13 11:39:26;;;;;;;;;5.67;4.00;;;;;32.77;32.48;101720.88;5038633;28;45549;-79
2022/07/13 11:41:55;;;;;;;;;3.00;3.00;;;;;32.90;32.05;101715.47;5054657;28;45446;-79
2022/07/13 11:44:24;;;;;;;;;3.33;3.33;;;;;32.98;32.27;101713.09;5054668;28;47416;-78